Sunday, January 21, 2018, 8:40 PM GMT
Back to Local

CWSA, Sable Island, N. S.

Location: , , Canada Lat: 43.933
Local Time: 8:40 PM GMT (20:40 GMT) Lon: -60.017
Time Zone: GMT Elev: 13 ft

Show me the last for .
Show Coded

Time T Td Feel RH Dir Speed Gust Alt SLP Vis Weather Sky Remarks
2018-01-21 20:00 36 27 24 69 290° 14 23 29.96 29.97 9 CLR None
2018-01-21 19:00 36 23 23 59 280° 20 25 29.95 29.95 9 CLR None
2018-01-21 18:00 36 27 25 69 290° 13 18 29.92 29.92 9 SCT025 None
2018-01-21 17:00 37 27 28 64 300° 17 - 29.92 29.92 9 BKN026 None
2018-01-21 16:00 37 27 29 64 310° 14 - 29.91 29.91 9 FEW036 None
2018-01-21 15:00 37 27 27 64 310° 15 21 29.92 29.92 9 SCT160 None
2018-01-21 14:00 37 28 26 69 320° 18 24 29.91 29.91 9 CLR None
2018-01-21 13:00 37 30 27 74 320° 18 - 29.86 29.86 9 FEW028 SCT034 BKN160 None
2018-01-21 12:00 39 32 28 75 290° 20 28 29.81 29.82 9 OVC140 None
2018-01-21 11:00 41 32 30 70 280° 17 26 29.79 29.80 8 FEW049 OVC150 None
2018-01-21 10:00 41 34 30 75 270° 20 30 29.76 29.76 7 OVC170 None
2018-01-21 09:33 41 32 30 70 270° 20 28 29.75 29.75 6 HZ SCT060 OVC170 None
2018-01-21 09:00 41 34 30 75 260° 18 29 29.73 29.74 5 HZ BKN065 BKN170 Pressure rising rapidly
2018-01-21 08:00 41 34 30 75 270° 16 28 29.72 29.72 5 HZ BKN065 OVC200 None
2018-01-21 07:08 41 34 30 75 270° 21 31 29.71 29.71 5 HZ BKN065 BKN210 Pressure rising rapidly
2018-01-21 07:00 41 34 29 75 270° 23 32 29.70 29.70 7 SCT060 BKN210 None
2018-01-21 06:20 39 34 28 80 260° 18 29 29.67 29.67 6 HZ SCT210 None
2018-01-21 06:00 39 34 28 80 270° 17 25 29.66 29.66 5 HZ CLR None
2018-01-21 05:00 41 34 30 75 260° 21 28 29.65 29.65 5 HZ BKN190 BKN210 None
2018-01-21 04:17 39 34 27 80 270° 21 30 29.65 29.65 5 HZ CLR None
2018-01-21 04:00 39 34 28 80 270° 20 28 29.65 29.65 7 CLR None
2018-01-21 03:31 39 34 27 80 270° 20 30 29.63 29.63 6 HZ CLR None
2018-01-21 03:05 39 34 28 80 270° 17 28 29.62 29.62 5 HZ CLR None
2018-01-21 03:00 39 34 28 80 270° 18 28 29.62 29.62 6 HZ CLR None
2018-01-21 02:44 39 34 28 80 270° 18 25 29.62 29.62 6 HZ FEW033 None
2018-01-21 02:28 39 34 28 80 270° 17 28 29.61 29.61 5 HZ BKN031 None
2018-01-21 02:00 41 34 30 75 270° 20 28 29.60 29.60 6 HZ OVC027 Pressure rising rapidly
2018-01-21 01:57 41 34 30 75 270° 20 28 29.60 29.60 6 HZ OVC027 Pressure rising rapidly
2018-01-21 01:23 41 36 30 80 270° 17 26 29.56 29.57 5 HZ OVC029 None
2018-01-21 01:13 41 36 29 80 270° 22 33 29.56 29.57 6 HZ OVC029 None
2018-01-21 01:00 41 36 30 80 270° 23 31 29.56 29.57 3 HZ OVC029 None
2018-01-21 00:00 43 37 31 81 250° 28 36 29.54 29.54 4 HZ OVC025 None
2018-01-20 23:50 43 37 31 81 260° 28 39 29.54 29.54 4 HZ OVC025 None
2018-01-20 23:30 43 37 31 81 250° 30 39 29.52 29.53 4 HZ OVC023 None
2018-01-20 23:00 43 37 30 81 250° 30 47 29.52 29.52 4 HZ BKN027 OVC140 None
2018-01-20 22:00 45 37 33 75 240° 30 40 29.50 29.50 5 HZ BKN041 BKN210 None
2018-01-20 21:00 43 39 33 86 210° 26 - 29.50 29.51 5 BR CLR None

Support USWX by starting your Amazon purchase here.